Time;durP1;ratioP1;P1;durP2;ratioP2;P2;SDS_P1;SDS_P2;PMS_P1;PMS_P2;Temp;Humidity;BMP_temperature;BMP_pressure;BME280_temperature;BME280_humidity;BME280_pressure;Samples;Min_cycle;Max_cycle;Signal;HPM_P1;HPM_P2
2022/06/23 00:02:37;;;;;;;11.82;6.82;;;;;;;19.83;58.87;94532.66;5075554;28;20028;-73
2022/06/23 00:05:07;;;;;;;10.60;6.22;;;;;;;19.82;60.16;94519.69;5092560;28;20044;-74
2022/06/23 00:07:35;;;;;;;12.27;6.63;;;;;;;19.88;60.34;94536.53;5075969;28;20409;-74
2022/06/23 00:10:12;;;;;;;11.98;7.30;;;;;;;19.86;60.96;94540.19;5092370;28;20541;-74
2022/06/23 00:12:40;;;;;;;9.95;6.75;;;;;;;19.81;60.77;94541.78;5092281;28;20020;-74
2022/06/23 00:15:05;;;;;;;10.13;6.43;;;;;;;19.81;59.00;94544.41;5075369;28;20127;-74
2022/06/23 00:17:34;;;;;;;11.60;6.65;;;;;;;19.84;58.90;94538.75;5092106;28;20119;-74
2022/06/23 00:20:05;;;;;;;7.65;6.13;;;;;;;19.88;59.11;94540.00;5091876;28;20050;-73
2022/06/23 00:22:31;;;;;;;10.98;6.40;;;;;;;19.81;59.87;94539.13;5092217;28;20046;-73
2022/06/23 00:24:58;;;;;;;8.70;6.50;;;;;;;19.71;60.71;94541.28;5075362;28;20093;-74
2022/06/23 00:27:29;;;;;;;9.38;5.82;;;;;;;19.59;61.12;94540.94;5075368;28;20031;-73
2022/06/23 00:29:58;;;;;;;10.57;6.25;;;;;;;19.61;60.87;94538.91;5089584;28;20032;-74
2022/06/23 00:32:23;;;;;;;11.65;6.00;;;;;;;19.56;60.07;94536.88;5058549;28;20032;-74
2022/06/23 00:34:59;;;;;;;11.48;6.47;;;;;;;19.54;59.48;94530.97;5091918;28;20040;-74
2022/06/23 00:37:25;;;;;;;8.35;6.10;;;;;;;19.48;59.35;94530.91;5075058;28;20043;-75
2022/06/23 00:39:58;;;;;;;10.02;6.00;;;;;;;19.59;59.47;94531.22;5074929;28;20498;-74
2022/06/23 00:42:26;;;;;;;8.00;6.13;;;;;;;19.55;60.50;94513.34;5091755;28;20028;-74
2022/06/23 00:45:08;;;;;;;8.70;6.68;;;;;;;19.43;61.62;94499.88;5058270;28;20036;-74
2022/06/23 00:47:57;;;;;;;11.77;6.38;;;;;;;19.39;61.07;94480.19;5091563;28;20501;-75
2022/06/23 00:50:22;;;;;;;11.88;6.85;;;;;;;19.29;60.53;94477.03;5091600;28;20429;-74
2022/06/23 00:52:55;;;;;;;8.70;6.57;;;;;;;19.36;61.17;94486.66;5092973;28;20021;-73
2022/06/23 00:55:44;;;;;;;9.35;6.22;;;;;;;19.40;61.62;94508.16;5074745;28;20036;-74
2022/06/23 00:58:31;;;;;;;8.90;6.10;;;;;;;19.37;61.29;94511.16;5077317;28;20020;-74
2022/06/23 01:01:04;;;;;;;13.18;6.78;;;;;;;19.38;61.79;94507.50;5075311;28;20036;-75
2022/06/23 01:03:32;;;;;;;10.23;6.75;;;;;;;19.37;61.51;94516.44;5090241;28;20024;-74
2022/06/23 01:06:36;;;;;;;9.32;6.45;;;;;;;19.34;60.81;94528.16;5091205;28;20035;-73
2022/06/23 01:09:15;;;;;;;9.95;5.82;;;;;;;19.31;60.08;94509.28;5092491;28;20039;-73
2022/06/23 01:12:13;;;;;;;10.35;5.43;;;;;;;19.28;59.55;94502.56;5074136;28;20039;-73
2022/06/23 01:14:59;;;;;;;11.30;6.07;;;;;;;19.30;59.55;94507.63;5076920;28;20143;-73
2022/06/23 01:17:37;;;;;;;8.68;5.80;;;;;;;19.29;60.02;94503.38;5090889;28;20032;-73
2022/06/23 01:20:51;;;;;;;10.30;6.50;;;;;;;19.31;59.09;94504.00;5068030;28;20035;-74
2022/06/23 01:23:37;;;;;;;11.10;5.50;;;;;;;19.34;58.99;94506.28;5074072;28;20670;-74
2022/06/23 01:26:36;;;;;;;8.57;5.68;;;;;;;19.29;59.12;94495.47;5071396;28;20551;-74
2022/06/23 01:29:24;;;;;;;9.20;5.53;;;;;;;19.36;58.46;94484.00;5070607;28;20075;-74
2022/06/23 01:31:54;;;;;;;8.27;5.93;;;;;;;19.31;58.21;94461.88;5063242;28;20078;-74
2022/06/23 01:34:50;;;;;;;11.32;6.00;;;;;;;19.30;58.81;94482.09;5037315;28;20036;-74
2022/06/23 01:37:27;;;;;;;8.73;5.93;;;;;;;19.35;59.17;94482.38;5071550;28;20557;-74
2022/06/23 01:40:02;;;;;;;10.32;6.07;;;;;;;19.33;58.94;94479.09;5074766;28;20089;-73
2022/06/23 01:42:41;;;;;;;7.55;5.57;;;;;;;19.33;59.50;94480.91;5075850;28;20023;-74
2022/06/23 01:45:23;;;;;;;11.05;5.72;;;;;;;19.37;59.09;94475.09;5069041;28;20461;-74
2022/06/23 01:47:51;;;;;;;9.85;5.75;;;;;;;19.37;58.97;94469.81;5079886;28;20085;-74
2022/06/23 01:50:37;;;;;;;13.45;5.50;;;;;;;19.36;58.99;94470.00;5080762;28;20076;-74
2022/06/23 01:53:27;;;;;;;10.20;5.55;;;;;;;19.34;58.88;94464.94;5064335;28;20532;-74
2022/06/23 01:55:59;;;;;;;7.97;5.53;;;;;;;19.27;59.39;94477.22;5080344;28;20153;-73
2022/06/23 01:58:25;;;;;;;11.23;5.32;;;;;;;19.22;58.60;94463.00;5079276;28;20634;-74
2022/06/23 02:00:53;;;;;;;9.40;5.43;;;;;;;19.27;58.42;94458.78;5061543;28;20028;-73
2022/06/23 02:03:32;;;;;;;7.88;5.28;;;;;;;19.28;58.46;94449.91;5061128;28;20517;-73
2022/06/23 02:06:11;;;;;;;8.73;5.40;;;;;;;19.23;58.52;94452.28;5079569;28;20085;-73
2022/06/23 02:08:54;;;;;;;8.80;5.50;;;;;;;19.15;58.65;94450.59;5089973;28;20493;-73
2022/06/23 02:11:45;;;;;;;9.98;5.35;;;;;;;19.17;58.24;94448.59;5089964;28;20278;-73
2022/06/23 02:14:13;;;;;;;9.40;5.60;;;;;;;19.13;58.68;94441.25;5089350;28;20093;-73
2022/06/23 02:16:43;;;;;;;10.93;5.55;;;;;;;19.05;58.93;94452.72;5091326;28;20024;-73
2022/06/23 02:19:31;;;;;;;14.50;5.88;;;;;;;18.96;59.21;94452.03;5083446;28;20031;-73
2022/06/23 02:22:06;;;;;;;13.45;6.10;;;;;;;18.97;59.56;94452.81;5069603;28;20043;-73
2022/06/23 02:24:34;;;;;;;10.27;6.13;;;;;;;18.87;59.61;94437.38;5071005;28;20033;-73
2022/06/23 02:27:12;;;;;;;7.72;5.72;;;;;;;19.02;59.52;94450.47;5069640;28;20040;-73
2022/06/23 02:29:50;;;;;;;10.93;6.00;;;;;;;19.02;59.66;94439.94;5078957;28;20570;-73
2022/06/23 02:32:37;;;;;;;11.73;5.85;;;;;;;18.98;59.59;94436.88;5083746;28;20024;-73
2022/06/23 02:35:12;;;;;;;8.98;6.25;;;;;;;18.97;59.52;94452.81;5064226;28;20040;-73
2022/06/23 02:37:50;;;;;;;9.50;5.65;;;;;;;18.97;59.41;94448.41;5072017;28;20032;-73
2022/06/23 02:40:17;;;;;;;10.73;5.78;;;;;;;18.89;59.50;94439.81;5083079;28;20101;-74
2022/06/23 02:42:42;;;;;;;8.30;5.93;;;;;;;18.92;59.65;94449.97;5069430;28;20033;-73
2022/06/23 02:45:29;;;;;;;8.50;5.85;;;;;;;18.87;59.74;94457.59;5052505;28;20028;-73
2022/06/23 02:48:00;;;;;;;11.70;6.00;;;;;;;18.87;59.85;94452.34;5073431;28;20517;-73
2022/06/23 02:50:27;;;;;;;;;;;;;;;18.91;59.84;94451.75;5076657;28;20056;-73
2022/06/23 02:53:02;;;;;;;10.15;5.97;;;;;;;18.90;59.63;94462.50;5071177;28;20429;-73
2022/06/23 02:55:34;;;;;;;8.75;5.65;;;;;;;18.91;59.84;94464.09;5072874;28;20028;-72
2022/06/23 02:58:17;;;;;;;8.43;6.35;;;;;;;18.82;60.28;94459.97;5090915;28;20336;-73
2022/06/23 03:00:42;;;;;;;7.88;5.88;;;;;;;18.80;60.20;94462.78;5089360;28;20463;-73
2022/06/23 03:03:15;;;;;;;12.75;6.18;;;;;;;18.71;60.34;94462.03;5091081;28;20032;-72
2022/06/23 03:05:56;;;;;;;8.90;6.35;;;;;;;18.70;60.52;94465.69;5073361;28;20056;-73
2022/06/23 03:08:38;;;;;;;8.98;5.72;;;;;;;18.71;60.81;94463.88;5090674;28;20036;-72
2022/06/23 03:11:51;;;;;;;10.32;5.85;;;;;;;18.69;60.49;94465.84;5072992;28;20420;-73
2022/06/23 03:14:12;;;;;;;9.85;5.65;;;;;;;18.71;60.31;94469.13;5077205;28;20040;-72
2022/06/23 03:16:38;;;;;;;8.65;6.03;;;;;;;18.66;60.38;94472.31;5056670;28;20494;-73
2022/06/23 03:19:10;;;;;;;11.63;6.10;;;;;;;18.67;60.36;94463.44;5089254;28;20254;-73
2022/06/23 03:21:51;;;;;;;11.13;6.70;;;;;;;18.67;60.76;94476.59;5072733;28;20508;-73
2022/06/23 03:24:22;;;;;;;11.73;6.50;;;;;;;18.68;60.87;94470.31;5056180;28;20036;-74
2022/06/23 03:26:58;;;;;;;9.63;6.40;;;;;;;18.76;60.83;94472.06;5093021;28;20417;-73
2022/06/23 03:29:38;;;;;;;8.95;6.18;;;;;;;18.75;61.54;94470.44;5060438;28;20036;-73
2022/06/23 03:32:12;;;;;;;8.65;6.60;;;;;;;18.55;62.33;94459.63;5093154;28;20550;-73
2022/06/23 03:35:27;;;;;;;13.30;6.85;;;;;;;18.40;62.92;94459.66;5077659;28;20498;-72
2022/06/23 03:38:00;;;;;;;10.52;6.50;;;;;;;18.45;62.95;94454.69;5038476;28;20098;-72
2022/06/23 03:43:43;;;;;;;10.27;6.32;;;;;;;18.75;61.94;94455.47;5072877;28;20043;-74
2022/06/23 03:46:26;;;;;;;13.55;6.70;;;;;;;18.85;61.94;94457.78;5072564;28;20024;-72
2022/06/23 03:48:57;;;;;;;16.58;6.88;;;;;;;18.69;62.48;94453.53;5061283;28;20055;-72
2022/06/23 03:51:30;;;;;;;11.88;6.97;;;;;;;18.48;63.63;94442.97;5076460;28;20058;-72
2022/06/23 03:54:27;;;;;;;11.35;7.13;;;;;;;18.58;63.69;94456.63;5093847;28;20120;-72
2022/06/23 03:56:55;;;;;;;13.10;7.38;;;;;;;18.69;63.95;94457.97;5084726;28;20032;-72
2022/06/23 03:59:20;;;;;;;13.68;7.57;;;;;;;18.73;64.10;94457.41;5092224;28;20135;-72
2022/06/23 04:02:23;;;;;;;11.32;7.63;;;;;;;18.94;63.51;94469.84;5093709;28;20545;-72
2022/06/23 04:04:55;;;;;;;11.07;7.80;;;;;;;18.89;64.06;94463.50;5037569;28;20071;-72
2022/06/23 04:07:29;;;;;;;11.10;7.35;;;;;;;18.90;63.08;94462.50;5090129;28;20046;-72
2022/06/23 04:10:00;;;;;;;10.50;7.22;;;;;;;19.25;62.08;94454.72;5093852;28;20036;-72
2022/06/23 04:12:25;;;;;;;10.00;7.32;;;;;;;19.75;61.60;94459.03;5075576;28;20109;-72
2022/06/23 04:15:03;;;;;;;12.90;7.20;;;;;;;20.55;58.48;94469.22;5093724;28;20028;-72
2022/06/23 04:17:41;;;;;;;12.63;7.20;;;;;;;21.18;56.02;94477.75;5083193;28;20033;-73
2022/06/23 04:20:19;;;;;;;13.95;7.38;;;;;;;21.82;54.04;94479.84;5080519;28;20033;-74
2022/06/23 04:23:01;;;;;;;10.48;6.97;;;;;;;22.25;52.61;94470.66;5082063;28;20500;-73
2022/06/23 04:25:57;;;;;;;14.23;7.13;;;;;;;22.56;51.76;94472.59;5076173;28;20508;-73
2022/06/23 04:28:43;;;;;;;12.88;7.50;;;;;;;22.78;51.16;94482.91;5071735;28;20051;-73
2022/06/23 04:31:09;;;;;;;11.65;7.03;;;;;;;23.32;50.16;94481.66;5081689;28;20032;-74
2022/06/23 04:33:38;;;;;;;12.13;7.07;;;;;;;23.59;48.87;94476.97;5068275;28;20765;-73
2022/06/23 04:36:03;;;;;;;10.82;7.05;;;;;;;23.80;48.38;94442.16;5064765;28;20032;-74
2022/06/23 04:38:41;;;;;;;12.98;7.13;;;;;;;24.60;46.10;94464.41;5075165;28;20024;-75
2022/06/23 04:41:14;;;;;;;13.05;7.50;;;;;;;25.20;45.26;94464.50;5072560;28;20017;-74
2022/06/23 04:44:01;;;;;;;11.95;7.15;;;;;;;26.03;43.02;94458.31;5056121;28;20051;-74
2022/06/23 04:46:47;;;;;;;12.10;6.90;;;;;;;25.75;42.84;94466.97;5072655;28;20021;-75
2022/06/23 04:49:31;;;;;;;14.10;7.72;;;;;;;24.61;45.52;94476.69;5071208;28;20118;-76
2022/06/23 04:52:18;;;;;;;11.25;7.15;;;;;;;24.08;47.30;94452.28;5072830;28;20025;-73
2022/06/23 04:54:57;;;;;;;14.50;7.38;;;;;;;23.87;48.17;94450.03;5070078;28;20119;-72
2022/06/23 04:57:33;;;;;;;14.90;7.00;;;;;;;23.97;47.99;94463.63;5078731;28;20024;-72
2022/06/23 05:00:00;;;;;;;15.57;6.65;;;;;;;24.18;48.20;94467.72;5061795;28;20048;-72
2022/06/23 05:02:41;;;;;;;11.88;6.93;;;;;;;24.20;47.08;94460.34;5060586;28;20059;-72
2022/06/23 05:05:22;;;;;;;15.43;6.97;;;;;;;24.20;47.57;94459.53;5074480;28;20035;-72
2022/06/23 05:08:06;;;;;;;;;;;;;;;24.13;47.53;94456.94;5057685;28;20024;-72
2022/06/23 05:10:36;;;;;;;13.70;7.30;;;;;;;23.99;48.31;94464.22;5089317;28;19927;-73
2022/06/23 05:13:06;;;;;;;11.23;7.35;;;;;;;24.00;48.55;94452.56;5089048;28;20024;-72
2022/06/23 05:15:37;;;;;;;15.52;7.57;;;;;;;24.01;48.36;94451.53;5072768;28;20040;-72
2022/06/23 05:18:08;;;;;;;18.58;8.43;;;;;;;23.80;48.52;94459.91;5076999;28;20036;-72
2022/06/23 05:20:41;;;;;;;18.90;9.10;;;;;;;23.73;49.45;94440.56;5051916;28;20043;-72
2022/06/23 05:23:28;;;;;;;20.90;8.25;;;;;;;23.96;49.45;94443.44;5050581;28;20032;-72
2022/06/23 05:25:55;;;;;;;19.75;8.82;;;;;;;23.60;49.77;94452.91;5067138;28;20032;-72
2022/06/23 05:28:25;;;;;;;20.92;7.93;;;;;;;23.73;49.96;94467.09;5068306;28;20024;-72
2022/06/23 05:30:52;;;;;;;14.15;8.13;;;;;;;23.74;50.05;94458.94;5051601;28;20381;-72
2022/06/23 05:33:24;;;;;;;12.15;7.65;;;;;;;23.49;50.56;94444.84;5068313;28;20094;-72
2022/06/23 05:35:57;;;;;;;14.95;7.35;;;;;;;23.18;51.89;94444.63;5051743;28;20028;-73
2022/06/23 05:38:23;;;;;;;12.00;7.35;;;;;;;23.10;52.29;94442.25;5052677;28;20032;-73
2022/06/23 05:40:55;;;;;;;13.10;7.70;;;;;;;23.09;52.48;94456.50;5071396;28;20052;-74
2022/06/23 05:43:21;;;;;;;14.55;8.20;;;;;;;23.13;51.17;94460.34;5069720;28;20020;-72
2022/06/23 05:45:55;;;;;;;13.55;8.43;;;;;;;23.04;52.13;94459.00;5052484;28;20566;-72
2022/06/23 05:48:42;;;;;;;14.32;7.93;;;;;;;23.00;52.10;94441.88;5052997;28;20025;-73
2022/06/23 05:51:10;;;;;;;14.55;8.00;;;;;;;22.99;52.15;94458.81;5069860;28;20074;-73
2022/06/23 05:53:40;;;;;;;14.90;8.30;;;;;;;22.94;52.65;94477.94;5070214;28;20017;-73
2022/06/23 05:56:12;;;;;;;20.45;8.68;;;;;;;22.82;53.01;94484.13;5070135;28;20032;-73
2022/06/23 05:58:50;;;;;;;16.17;8.27;;;;;;;22.64;53.74;94520.00;5051702;28;20078;-73
2022/06/23 06:01:43;;;;;;;10.25;8.57;;;;;;;22.62;53.73;94675.59;5052350;28;20553;-73
2022/06/23 06:04:20;;;;;;;13.82;8.70;;;;;;;22.41;54.91;94868.97;5069826;28;20063;-73
2022/06/23 06:06:46;;;;;;;24.63;10.40;;;;;;;22.12;56.34;94847.06;5068814;28;20059;-72
2022/06/23 06:36:37;;;;;;;;;;;;;;;16.85;88.53;94671.75;5088617;27;19917;-77
2022/06/23 06:39:05;;;;;;;;;;;;;;;16.86;88.58;94655.03;5088759;28;19931;-77
2022/06/23 06:41:30;;;;;;;;;;;;;;;16.82;89.47;94645.88;5087624;28;19960;-77
2022/06/23 06:43:56;;;;;;;;;;;;;;;16.90;89.60;94645.84;5087395;28;19993;-77
2022/06/23 06:46:21;;;;;;;;;;;;;;;16.92;91.23;94646.50;5088760;28;19916;-79
2022/06/23 06:48:47;;;;;;;;;;;;;;;16.92;91.08;94646.50;5088707;28;19931;-80
2022/06/23 06:51:22;;;;;;;;;;;;;;;16.76;90.00;94622.91;5088310;28;20403;-83
2022/06/23 06:53:49;;;;;;;;;;;;;;;16.67;89.86;94621.31;5087889;28;19925;-77
2022/06/23 06:56:16;;;;;;;;;;;;;;;16.62;89.92;94613.13;5086766;28;19951;-76
2022/06/23 06:58:43;;;;;;;;;;;;;;;16.55;91.09;94607.75;5087187;28;19933;-77
2022/06/23 07:01:09;;;;;;;;;;;;;;;16.60;91.61;94597.53;5088206;28;19924;-76
2022/06/23 07:03:34;;;;;;;;;;;;;;;16.68;91.90;94596.72;5088328;28;19916;-76
2022/06/23 07:06:30;;;;;;;18.33;12.45;;;;;;;16.73;92.49;94595.22;5087676;28;20049;-76
2022/06/23 07:09:01;;;;;;;17.48;11.32;;;;;;;16.82;92.34;94596.03;5079346;28;20087;-76
2022/06/23 07:11:52;;;;;;;18.02;11.50;;;;;;;16.92;92.85;94601.88;5087993;28;20482;-76
2022/06/23 07:14:27;;;;;;;18.27;11.63;;;;;;;16.90;91.97;94582.06;5053644;28;20091;-78
2022/06/23 07:17:02;;;;;;;15.75;11.68;;;;;;;16.89;92.52;94580.44;5069767;28;20024;-78
2022/06/23 07:19:39;;;;;;;14.30;11.65;;;;;;;16.98;91.86;94587.28;5069413;28;20433;-76
2022/06/23 07:22:30;;;;;;;14.80;11.70;;;;;;;17.01;92.44;94588.75;5069003;28;20035;-76
2022/06/23 07:24:55;;;;;;;;;;;;;;;17.10;92.17;94601.63;5069651;28;20047;-75
2022/06/23 07:27:28;;;;;;;11.53;9.30;;;;;;;17.01;91.35;94592.16;5087320;28;19912;-75
2022/06/23 07:30:04;;;;;;;12.15;8.73;;;;;;;17.18;91.73;94598.16;5087379;28;20818;-75
2022/06/23 07:32:45;;;;;;;13.80;9.15;;;;;;;17.35;92.18;94609.38;5069998;28;20546;-75
2022/06/23 07:35:13;;;;;;;15.18;10.68;;;;;;;17.39;91.39;94618.56;5083981;28;20056;-75
2022/06/23 07:37:52;;;;;;;13.80;11.48;;;;;;;17.57;92.75;94641.91;5073334;28;20028;-75
2022/06/23 07:40:18;;;;;;;14.23;12.02;;;;;;;17.71;93.27;94635.88;5073844;28;20036;-75
2022/06/23 07:43:06;;;;;;;18.13;12.75;;;;;;;17.85;93.00;94637.78;5055513;28;20029;-75
2022/06/23 07:45:54;;;;;;;15.90;11.73;;;;;;;18.00;93.14;94626.53;5071923;28;20102;-75
2022/06/23 07:48:20;;;;;;;18.33;11.80;;;;;;;17.89;90.06;94626.94;5073283;28;20469;-77
2022/06/23 07:50:45;;;;;;;14.02;11.63;;;;;;;18.01;91.98;94628.16;5072148;28;20037;-76
2022/06/23 07:53:21;;;;;;;13.35;10.68;;;;;;;18.15;91.00;94637.88;5072046;28;20587;-76
2022/06/23 07:55:46;;;;;;;13.65;10.35;;;;;;;18.16;90.87;94623.72;5072004;28;20434;-76
2022/06/23 07:58:14;;;;;;;11.45;10.05;;;;;;;18.28;89.91;94638.09;5071970;28;20028;-76
2022/06/23 08:00:40;;;;;;;14.93;11.20;;;;;;;18.50;90.15;94652.19;5072147;28;20060;-76
2022/06/23 08:03:13;;;;;;;18.70;12.90;;;;;;;18.69;90.28;94650.00;5038910;28;20024;-76
2022/06/23 08:05:46;;;;;;;18.38;11.32;;;;;;;18.85;88.85;94647.25;5038835;28;20040;-76
2022/06/23 08:08:15;;;;;;;13.82;10.38;;;;;;;18.85;89.36;94646.44;5056262;28;20032;-77
2022/06/23 08:10:41;;;;;;;15.73;10.10;;;;;;;18.74;83.91;94652.94;5071883;28;20555;-77
2022/06/23 08:13:08;;;;;;;16.20;11.23;;;;;;;18.78;89.09;94656.88;5055141;28;20028;-75
2022/06/23 08:18:30;;;;;;;13.30;10.30;;;;;;;19.10;88.44;94657.47;5071868;28;20035;-75
2022/06/23 08:21:06;;;;;;;13.45;11.18;;;;;;;19.23;83.65;94651.59;5072793;28;20052;-75
2022/06/23 08:23:34;;;;;;;15.98;10.35;;;;;;;19.25;85.76;94650.41;5055328;28;20166;-75
2022/06/23 08:26:00;;;;;;;16.75;10.48;;;;;;;19.37;87.73;94650.75;5054964;28;20062;-75
2022/06/23 08:28:26;;;;;;;15.75;9.85;;;;;;;19.45;86.21;94634.81;5071422;28;20082;-75
2022/06/23 08:30:51;;;;;;;13.35;10.18;;;;;;;19.55;85.82;94621.34;5072555;28;20035;-76
2022/06/23 08:33:16;;;;;;;13.30;9.82;;;;;;;19.74;86.86;94622.56;5071447;28;20033;-76
2022/06/23 08:35:43;;;;;;;15.98;9.68;;;;;;;19.88;85.84;94631.44;5054527;28;20060;-75
2022/06/23 08:38:10;;;;;;;12.82;9.38;;;;;;;20.04;86.47;94636.44;5071325;28;20024;-75
2022/06/23 08:40:50;;;;;;;11.98;9.38;;;;;;;19.97;83.93;94635.56;5072771;28;20482;-75
2022/06/23 08:43:37;;;;;;;13.63;9.48;;;;;;;20.15;84.91;94624.56;5071213;28;20028;-75
2022/06/23 08:46:15;;;;;;;11.48;8.70;;;;;;;20.23;77.50;94624.44;5054387;28;20032;-76
2022/06/23 08:48:42;;;;;;;10.93;9.15;;;;;;;20.26;84.60;94618.78;5054053;28;20024;-75
2022/06/23 08:51:29;;;;;;;15.85;8.73;;;;;;;20.28;82.20;94622.03;5070978;28;20032;-76
2022/06/23 08:54:12;;;;;;;11.38;8.90;;;;;;;20.40;84.79;94617.88;5072062;28;20040;-75
2022/06/23 08:56:39;;;;;;;9.48;7.57;;;;;;;20.49;82.34;94603.50;5070780;28;20032;-76
2022/06/23 08:59:23;;;;;;;11.50;8.43;;;;;;;20.56;83.06;94605.41;5054107;28;20433;-76
2022/06/23 09:01:58;;;;;;;9.85;7.65;;;;;;;20.61;81.38;94606.47;5056150;28;20029;-76
2022/06/23 09:04:49;;;;;;;10.32;7.82;;;;;;;20.79;81.68;94610.44;5054670;28;20032;-76
2022/06/23 09:07:43;;;;;;;13.10;8.45;;;;;;;20.91;80.85;94604.38;5071948;28;20024;-76
2022/06/23 09:10:20;;;;;;;10.75;7.80;;;;;;;20.95;81.71;94605.66;5071318;28;20053;-76
2022/06/23 09:12:46;;;;;;;13.07;7.80;;;;;;;21.19;80.52;94606.13;5054306;28;20031;-76
2022/06/23 09:15:34;;;;;;;9.77;7.07;;;;;;;21.30;80.24;94602.94;5071579;28;20037;-76
2022/06/23 09:18:39;;;;;;;12.00;7.88;;;;;;;21.51;79.82;94609.13;5071433;28;20036;-76
2022/06/23 09:21:32;;;;;;;14.45;6.93;;;;;;;21.61;77.41;94601.63;5070519;28;20051;-76
2022/06/23 09:24:30;;;;;;;13.82;7.18;;;;;;;21.73;77.17;94596.56;5070319;28;20082;-76
2022/06/23 09:27:18;;;;;;;12.27;6.78;;;;;;;21.69;69.73;94585.59;5069445;28;20047;-76
2022/06/23 09:29:56;;;;;;;12.27;6.90;;;;;;;21.58;76.30;94584.34;5070525;28;20056;-76
2022/06/23 09:32:22;;;;;;;12.05;7.63;;;;;;;21.65;74.07;94581.72;5071574;28;20151;-76
2022/06/23 09:35:14;;;;;;;11.25;8.10;;;;;;;21.63;76.68;94581.91;5071281;28;20140;-76
2022/06/23 09:38:04;;;;;;;13.40;7.45;;;;;;;21.74;74.88;94577.06;5071348;28;20048;-76
2022/06/23 09:40:38;;;;;;;10.63;6.97;;;;;;;21.86;76.77;94564.84;5070325;28;20025;-76
2022/06/23 09:43:22;;;;;;;11.98;7.82;;;;;;;21.96;75.38;94561.81;5071368;28;20024;-76
2022/06/23 09:46:10;;;;;;;14.48;7.82;;;;;;;22.11;76.75;94559.78;5071251;28;20493;-76
2022/06/23 09:48:44;;;;;;;12.20;7.80;;;;;;;22.28;77.50;94563.66;5055031;28;20029;-76
2022/06/23 09:51:22;;;;;;;9.73;7.38;;;;;;;22.42;76.21;94574.22;5071415;28;20024;-76
2022/06/23 09:53:54;;;;;;;11.00;7.18;;;;;;;22.30;75.45;94566.09;5069871;28;20028;-76
2022/06/23 09:56:54;;;;;;;8.35;6.80;;;;;;;22.38;74.69;94567.72;5069838;28;20029;-76
2022/06/23 09:59:32;;;;;;;11.25;7.55;;;;;;;22.41;68.79;94556.72;5069714;28;20111;-76
2022/06/23 10:02:30;;;;;;;9.90;7.38;;;;;;;22.44;74.01;94559.78;5069868;28;20032;-76
2022/06/23 10:05:29;;;;;;;10.65;7.68;;;;;;;22.53;69.46;94547.13;5068897;28;20436;-76
2022/06/23 10:08:00;;;;;;;10.52;6.82;;;;;;;22.57;70.57;94556.28;5069709;28;20082;-76
2022/06/23 10:10:32;;;;;;;8.25;7.30;;;;;;;22.67;69.19;94551.38;5069890;28;20135;-76
2022/06/23 10:13:09;;;;;;;11.90;7.75;;;;;;;22.81;70.62;94557.44;5070982;28;20270;-76
2022/06/23 10:15:53;;;;;;;10.02;6.50;;;;;;;22.92;70.38;94559.44;5071399;28;20064;-76
2022/06/23 10:18:55;;;;;;;8.77;6.72;;;;;;;23.04;66.93;94557.00;5069935;28;20032;-76
2022/06/23 10:21:49;;;;;;;11.50;6.07;;;;;;;23.12;66.27;94558.56;5071041;28;20511;-76
2022/06/23 10:24:28;;;;;;;7.35;6.22;;;;;;;23.19;66.53;94552.22;5054790;28;20036;-76
2022/06/23 10:27:17;;;;;;;8.55;6.47;;;;;;;23.10;62.43;94532.31;5071508;28;20074;-76
2022/06/23 10:29:46;;;;;;;11.05;6.70;;;;;;;22.99;67.11;94548.84;5069560;28;20051;-76
2022/06/23 10:32:22;;;;;;;8.00;6.07;;;;;;;22.78;66.43;94547.25;5069767;28;20551;-76
2022/06/23 10:35:07;;;;;;;6.60;5.90;;;;;;;22.79;62.50;94543.59;5069639;28;20533;-76
2022/06/23 10:38:06;;;;;;;9.25;5.82;;;;;;;22.65;67.58;94536.69;5069639;28;20039;-76
2022/06/23 10:40:47;;;;;;;9.88;7.20;;;;;;;22.78;64.68;94525.28;5071195;28;20032;-76
2022/06/23 10:43:36;;;;;;;9.02;6.00;;;;;;;22.82;69.55;94521.19;5069361;28;20028;-76
2022/06/23 10:46:20;;;;;;;7.85;6.38;;;;;;;22.95;68.99;94521.13;5069522;28;20056;-76
2022/06/23 10:49:06;;;;;;;9.45;6.35;;;;;;;23.10;65.39;94521.72;5070679;28;20043;-76
2022/06/23 10:51:45;;;;;;;10.40;6.72;;;;;;;23.27;60.90;94513.28;5070710;28;20552;-76
2022/06/23 10:54:20;;;;;;;9.10;6.10;;;;;;;23.39;63.42;94517.66;5069221;28;20028;-76
2022/06/23 10:56:45;;;;;;;8.00;5.78;;;;;;;23.49;63.95;94514.56;5070587;28;20545;-76
2022/06/23 10:59:20;;;;;;;10.30;6.43;;;;;;;23.61;63.44;94510.19;5069418;28;20074;-76
2022/06/23 11:02:14;;;;;;;9.80;6.72;;;;;;;23.67;64.76;94511.16;5069263;28;20111;-76
2022/06/23 11:04:51;;;;;;;11.95;7.72;;;;;;;23.74;60.17;94519.13;5055004;28;20504;-76
2022/06/23 11:07:58;;;;;;;9.93;7.22;;;;;;;23.90;64.79;94518.56;5070670;28;20016;-76
2022/06/23 11:10:32;;;;;;;11.23;6.00;;;;;;;24.05;64.18;94507.63;5052438;28;20141;-78
2022/06/23 11:13:22;;;;;;;14.57;6.55;;;;;;;24.17;62.53;94510.38;5074206;28;20036;-78
2022/06/23 11:16:24;;;;;;;10.35;6.10;;;;;;;24.19;60.86;94495.06;5073898;28;20043;-78
2022/06/23 11:18:53;;;;;;;8.88;6.53;;;;;;;24.17;60.08;94505.06;5056061;28;20048;-78
2022/06/23 11:21:52;;;;;;;9.63;6.25;;;;;;;24.28;61.28;94494.53;5073883;28;20039;-78
2022/06/23 11:24:30;;;;;;;10.75;5.57;;;;;;;24.18;61.12;94506.69;5056128;28;20795;-78
2022/06/23 11:27:07;;;;;;;8.82;5.57;;;;;;;24.29;58.77;94505.97;5072713;28;20391;-78
2022/06/23 11:29:36;;;;;;;10.05;5.78;;;;;;;24.30;58.82;94500.44;5056062;28;20037;-78
2022/06/23 11:32:27;;;;;;;8.23;5.15;;;;;;;24.34;59.29;94513.28;5073778;28;20024;-78
2022/06/23 11:35:09;;;;;;;10.38;6.00;;;;;;;24.37;58.00;94507.53;5073167;28;20090;-78
2022/06/23 11:37:56;;;;;;;8.80;5.28;;;;;;;24.51;58.21;94512.50;5056204;28;20021;-78
2022/06/23 11:40:37;;;;;;;13.82;6.15;;;;;;;24.45;57.54;94531.97;5072450;28;20043;-78
2022/06/23 11:43:17;;;;;;;12.57;5.65;;;;;;;24.46;59.79;94517.69;5073704;28;20039;-78
2022/06/23 11:46:02;;;;;;;9.75;5.45;;;;;;;24.67;56.94;94524.38;5072577;28;20064;-78
2022/06/23 11:48:48;;;;;;;11.48;5.97;;;;;;;24.51;57.73;94515.16;5072506;28;20312;-77
2022/06/23 11:51:43;;;;;;;8.80;6.32;;;;;;;24.54;59.73;94519.22;5056799;28;20043;-78
2022/06/23 11:54:24;;;;;;;12.45;6.40;;;;;;;24.59;58.71;94523.88;5072127;28;20044;-78
2022/06/23 11:56:59;;;;;;;11.95;6.03;;;;;;;24.68;59.47;94530.50;5072269;28;20032;-78
2022/06/23 11:59:47;;;;;;;9.55;5.70;;;;;;;24.77;59.06;94521.22;5072263;28;20051;-78
2022/06/23 12:02:13;;;;;;;14.25;7.45;;;;;;;24.79;59.19;94529.78;5072451;28;20043;-78
2022/06/23 12:04:51;;;;;;;10.85;6.38;;;;;;;24.95;59.27;94531.03;5072006;28;20036;-78
2022/06/23 12:07:43;;;;;;;10.95;6.53;;;;;;;25.00;56.90;94519.75;5072154;28;20032;-78
2022/06/23 12:10:28;;;;;;;10.55;5.43;;;;;;;25.19;58.36;94527.47;5072071;28;20064;-78
2022/06/23 12:12:56;;;;;;;11.82;5.25;;;;;;;25.37;53.36;94528.47;5055274;28;20025;-78
2022/06/23 12:15:24;;;;;;;11.43;5.07;;;;;;;25.52;54.23;94526.22;5055164;28;20036;-78
2022/06/23 12:18:04;;;;;;;13.65;5.15;;;;;;;25.60;53.14;94527.72;5071750;28;20036;-78
2022/06/23 12:20:54;;;;;;;12.65;5.22;;;;;;;25.68;52.44;94519.44;5072067;28;20406;-78
2022/06/23 12:23:36;;;;;;;10.75;4.82;;;;;;;25.62;51.21;94510.50;5072714;28;20089;-78
2022/06/23 12:26:23;;;;;;;10.40;4.57;;;;;;;25.68;52.22;94514.09;5055360;28;20068;-78
2022/06/23 12:28:56;;;;;;;9.48;4.90;;;;;;;25.60;52.74;94507.28;5071414;28;20033;-78
2022/06/23 12:31:42;;;;;;;11.80;5.30;;;;;;;25.64;53.73;94519.09;5071628;28;20383;-78
2022/06/23 12:34:22;;;;;;;9.02;4.88;;;;;;;25.63;53.95;94512.16;5072542;28;20060;-78
2022/06/23 12:37:07;;;;;;;12.15;5.20;;;;;;;25.74;53.93;94507.91;5072706;28;20028;-78
2022/06/23 12:39:45;;;;;;;12.35;5.20;;;;;;;25.73;50.76;94511.59;5072702;28;20040;-78
2022/06/23 12:42:38;;;;;;;12.75;5.22;;;;;;;25.77;50.56;94504.78;5071316;28;20056;-78
2022/06/23 12:45:22;;;;;;;11.88;5.30;;;;;;;25.78;50.77;94511.72;5061813;28;20064;-78
2022/06/23 12:47:54;;;;;;;17.52;5.53;;;;;;;25.93;47.50;94497.19;5071182;28;20035;-78
2022/06/23 12:50:31;;;;;;;13.38;5.65;;;;;;;25.89;49.44;94510.16;5071298;28;20399;-77
2022/06/23 12:52:59;;;;;;;12.80;5.60;;;;;;;25.82;49.67;94496.09;5072298;28;20028;-77